Time;durP1;ratioP1;P1;durP2;ratioP2;P2;SDS_P1;SDS_P2;PMS_P1;PMS_P2;Temp;Humidity;BMP_temperature;BMP_pressure;BME280_temperature;BME280_humidity;BME280_pressure;Samples;Min_cycle;Max_cycle;Signal;HPM_P1;HPM_P2
2023/06/23 00:00:59;;;;;;;3.72;2.38;;;16.30;99.90;;;15.79;100.00;101992.34;4167795;28;20489;-76
2023/06/23 00:03:00;;;;;;;5.40;3.25;;;16.30;99.90;;;15.89;100.00;102010.81;4168178;28;20026;-76
2023/06/23 00:05:03;;;;;;;3.83;3.25;;;16.30;99.90;;;15.87;100.00;102008.34;4168912;28;20102;-76
2023/06/23 00:07:04;;;;;;;4.20;3.23;;;16.30;99.90;;;15.76;100.00;101992.66;4167782;28;20033;-76
2023/06/23 00:09:13;;;;;;;5.22;3.95;;;16.30;99.90;;;15.81;100.00;102003.66;4167517;28;20022;-75
2023/06/23 00:11:14;;;;;;;4.47;3.28;;;16.30;99.90;;;15.72;100.00;101993.13;4169176;28;20093;-76
2023/06/23 00:13:17;;;;;;;4.38;3.00;;;16.30;99.90;;;15.80;100.00;102006.47;4167250;28;20052;-76
2023/06/23 00:15:18;;;;;;;4.13;3.08;;;16.30;99.90;;;15.73;100.00;101992.97;4169099;28;20030;-76
2023/06/23 00:17:20;;;;;;;5.25;3.40;;;16.20;99.90;;;15.64;100.00;101977.13;4167812;28;20021;-76
2023/06/23 00:19:20;;;;;;;4.80;3.03;;;16.20;99.90;;;15.66;100.00;101980.44;4167263;28;20046;-76
2023/06/23 00:21:21;;;;;;;4.82;3.50;;;16.20;99.90;;;15.66;100.00;101991.94;4167297;28;20528;-76
2023/06/23 00:23:22;;;;;;;3.90;2.97;;;16.20;99.90;;;15.59;100.00;101987.41;4151028;28;20033;-76
2023/06/23 00:25:23;;;;;;;5.13;3.67;;;16.10;99.90;;;15.66;100.00;102001.72;4184144;28;20021;-76
2023/06/23 00:27:24;;;;;;;5.22;3.92;;;16.10;99.90;;;15.64;100.00;101993.09;4167363;28;20501;-76
2023/06/23 00:29:25;;;;;;;4.15;2.97;;;16.10;99.90;;;15.56;100.00;101982.41;4168690;28;20025;-76
2023/06/23 00:31:26;;;;;;;3.90;3.25;;;16.10;99.90;;;15.56;100.00;101974.44;4168681;28;20055;-75
2023/06/23 00:33:27;;;;;;;4.18;3.63;;;16.10;99.90;;;15.60;100.00;101987.25;4167475;28;20026;-76
2023/06/23 00:35:28;;;;;;;5.85;3.00;;;16.10;99.90;;;15.52;100.00;101975.72;4167665;28;20100;-76
2023/06/23 00:37:32;;;;;;;4.40;3.67;;;16.10;99.90;;;15.45;100.00;101971.00;4168697;28;20025;-76
2023/06/23 00:39:33;;;;;;;4.88;3.50;;;16.00;99.90;;;15.49;100.00;101983.03;4168634;28;20481;-76
2023/06/23 00:41:34;;;;;;;4.75;3.50;;;16.00;99.90;;;15.43;100.00;101978.31;4167132;28;20033;-76
2023/06/23 00:43:35;;;;;;;5.03;3.28;;;16.00;99.90;;;15.55;100.00;101988.72;4168396;28;20114;-76
2023/06/23 00:45:36;;;;;;;5.20;3.33;;;16.00;99.90;;;15.50;100.00;101984.69;4167380;28;20104;-76
2023/06/23 00:47:36;;;;;;;5.47;3.42;;;16.00;99.90;;;15.53;100.00;101996.03;4167281;28;20022;-76
2023/06/23 00:49:37;;;;;;;3.92;2.97;;;16.00;99.90;;;15.53;100.00;102002.16;4182128;28;20021;-76
2023/06/23 00:51:39;;;;;;;4.40;3.15;;;16.00;99.90;;;15.34;100.00;101981.09;4167411;28;20029;-75
2023/06/23 00:53:41;;;;;;;5.05;3.55;;;15.90;99.90;;;15.30;100.00;101975.25;4170585;28;20030;-76
2023/06/23 00:55:44;;;;;;;3.58;3.08;;;15.90;99.90;;;15.33;100.00;101985.56;4170648;28;20028;-75
2023/06/23 00:57:46;;;;;;;4.55;3.47;;;15.90;99.90;;;15.28;100.00;101982.53;4171463;28;20477;-76
2023/06/23 00:59:47;;;;;;;5.38;3.20;;;15.80;99.90;;;15.36;100.00;102003.88;4171813;28;20061;-76
2023/06/23 01:01:48;;;;;;;4.97;3.38;;;15.80;99.90;;;15.31;100.00;101997.34;4171755;28;20029;-76
2023/06/23 01:03:49;;;;;;;7.97;3.70;;;15.80;99.90;;;15.30;100.00;102001.00;4171807;28;20124;-76
2023/06/23 01:05:51;;;;;;;3.63;3.10;;;15.70;99.90;;;15.19;100.00;101996.78;4203505;28;20102;-76
2023/06/23 01:08:30;;;;;;;5.43;3.60;;;15.70;99.90;;;15.26;100.00;102012.94;4170941;28;20033;-76
2023/06/23 01:11:01;;;;;;;4.03;3.17;;;15.70;99.90;;;15.18;100.00;102007.53;4171622;28;20029;-76
2023/06/23 01:13:11;;;;;;;5.38;3.20;;;15.70;99.90;;;15.18;100.00;102019.00;4170376;28;20053;-76
2023/06/23 01:15:21;;;;;;;5.35;3.92;;;15.70;99.90;;;15.06;100.00;102006.97;4170460;28;20048;-76
2023/06/23 01:17:36;;;;;;;4.82;3.40;;;15.60;99.90;;;15.06;100.00;102008.78;4170718;28;20497;-75
2023/06/23 01:19:57;;;;;;;4.97;4.15;;;15.60;99.90;;;15.09;100.00;102011.97;4154456;28;20042;-76
2023/06/23 01:22:30;;;;;;;4.05;3.50;;;15.50;99.90;;;15.07;100.00;102005.16;4171348;28;20057;-75
2023/06/23 01:25:23;;;;;;;4.88;3.92;;;15.50;99.90;;;15.07;100.00;102018.44;4170232;28;20030;-75
2023/06/23 01:27:46;;;;;;;5.18;3.58;;;15.50;99.90;;;15.07;100.00;102021.94;4171251;28;20270;-75
2023/06/23 01:29:50;;;;;;;5.57;3.55;;;15.50;99.90;;;15.02;100.00;102018.06;4169927;28;20076;-75
2023/06/23 01:32:14;;;;;;;6.95;4.00;;;15.50;99.90;;;15.00;100.00;102018.22;4170025;28;20034;-76
2023/06/23 01:34:23;;;;;;;5.23;3.60;;;15.50;99.90;;;14.89;100.00;101999.84;4170180;28;20029;-75
2023/06/23 01:37:05;;;;;;;5.20;3.97;;;15.50;99.90;;;14.96;100.00;102023.00;4170086;28;20268;-75
2023/06/23 01:39:11;;;;;;;4.70;3.97;;;15.40;99.90;;;14.87;100.00;102009.81;4186453;28;20051;-76
2023/06/23 01:41:19;;;;;;;4.93;4.03;;;15.40;99.90;;;14.89;100.00;102026.41;4171210;28;20022;-76
2023/06/23 01:43:29;;;;;;;7.95;4.20;;;15.40;99.90;;;14.81;100.00;102015.72;4169740;28;20036;-76
2023/06/23 01:45:30;;;;;;;5.43;4.13;;;15.30;99.90;;;14.82;100.00;102025.34;4170066;28;20048;-75
2023/06/23 01:47:38;;;;;;;6.40;4.30;;;15.30;99.90;;;14.79;100.00;102017.69;4169719;28;20033;-76
2023/06/23 01:49:39;;;;;;;5.68;4.55;;;15.30;99.90;;;14.83;100.00;102025.22;4170846;28;20030;-76
2023/06/23 01:51:45;;;;;;;6.75;4.45;;;15.30;99.90;;;14.87;100.00;102025.75;4169931;28;20494;-76
2023/06/23 01:53:48;;;;;;;6.40;4.88;;;15.30;99.90;;;14.85;100.00;102022.38;4169661;28;20056;-76
2023/06/23 01:55:50;;;;;;;5.40;3.95;;;15.30;99.90;;;14.83;100.00;102019.91;4137393;28;20026;-75
2023/06/23 01:57:53;;;;;;;5.68;4.13;;;15.30;99.90;;;14.81;100.00;102015.72;4169384;28;20041;-76
2023/06/23 01:59:56;;;;;;;5.47;4.00;;;15.30;99.90;;;14.89;100.00;102029.91;4169735;28;20032;-76
2023/06/23 02:01:58;;;;;;;4.25;3.80;;;15.30;99.90;;;14.82;100.00;102025.34;4169592;28;20057;-76
2023/06/23 02:04:03;;;;;;;6.80;4.07;;;15.30;99.90;;;14.82;100.00;102022.69;4169774;28;20068;-76
2023/06/23 02:06:05;;;;;;;6.32;4.10;;;15.30;99.90;;;14.76;100.00;102018.00;4170833;28;20079;-76
2023/06/23 02:08:07;;;;;;;4.18;3.65;;;15.30;99.90;;;14.67;100.00;102016.25;4153232;28;20100;-75
2023/06/23 02:10:09;;;;;;;4.80;3.80;;;15.20;99.90;;;14.65;100.00;102020.88;4153287;28;20141;-75
2023/06/23 02:12:12;;;;;;;5.28;3.67;;;15.20;99.90;;;14.64;100.00;102027.16;4169081;28;20122;-76
2023/06/23 02:14:14;;;;;;;4.57;3.50;;;15.10;99.90;;;14.57;100.00;102021.66;4153402;28;20026;-76
2023/06/23 02:16:16;;;;;;;4.88;3.80;;;15.10;99.90;;;14.44;100.00;102012.38;4153198;28;20026;-75
2023/06/23 02:18:20;;;;;;;4.82;3.83;;;15.00;99.90;;;14.50;100.00;102019.72;4169364;28;20042;-76
2023/06/23 02:20:23;;;;;;;5.05;3.55;;;15.00;99.90;;;14.50;100.00;102027.69;4152855;28;20029;-76
2023/06/23 02:22:28;;;;;;;4.85;3.95;;;15.00;99.90;;;14.46;100.00;102026.31;4154509;28;20053;-75
2023/06/23 02:24:29;;;;;;;7.47;3.45;;;15.00;99.90;;;14.24;100.00;101993.91;4152779;28;20026;-75
2023/06/23 02:26:31;;;;;;;4.80;3.65;;;15.00;99.90;;;14.29;100.00;102004.88;4197448;28;20055;-76
2023/06/23 02:28:32;;;;;;;5.50;3.92;;;14.90;99.90;;;14.33;100.00;102022.22;4169056;28;20033;-75
2023/06/23 02:30:34;;;;;;;4.65;3.67;;;14.90;99.90;;;14.25;100.00;102000.00;4169275;28;20440;-75
2023/06/23 02:32:35;;;;;;;6.30;3.95;;;14.80;99.90;;;14.27;100.00;102017.47;4169246;28;20056;-75
2023/06/23 02:34:36;;;;;;;5.55;4.15;;;14.80;99.90;;;14.22;100.00;102014.41;4152799;28;20460;-75
2023/06/23 02:36:47;;;;;;;4.80;3.80;;;14.70;99.90;;;14.06;100.00;101992.19;4152548;28;20017;-75
2023/06/23 02:38:55;;;;;;;4.75;3.60;;;14.70;99.90;;;14.13;100.00;102012.66;4168865;28;20500;-75
2023/06/23 02:40:58;;;;;;;4.47;4.03;;;14.60;99.90;;;13.97;100.00;101990.41;4202005;28;20547;-76
2023/06/23 02:43:28;;;;;;;4.80;3.53;;;14.60;99.90;;;13.99;100.00;101999.88;4169882;28;20025;-75
2023/06/23 02:45:36;;;;;;;4.28;3.60;;;14.60;99.90;;;13.97;100.00;102003.69;4169095;28;20029;-75
2023/06/23 02:47:39;;;;;;;3.63;3.28;;;14.50;99.90;;;13.93;100.00;102011.09;4169027;28;20032;-75
2023/06/23 02:49:42;;;;;;;4.68;3.53;;;14.50;99.90;;;13.77;100.00;101989.66;4168761;28;20018;-75
2023/06/23 02:51:45;;;;;;;9.02;4.05;;;14.40;99.90;;;13.90;100.00;102013.19;4169100;28;20065;-76
2023/06/23 02:54:04;;;;;;;7.10;4.57;;;14.40;99.90;;;13.85;100.00;102000.38;4168895;28;20026;-75
2023/06/23 02:56:22;;;;;;;6.07;4.35;;;14.40;99.90;;;13.82;100.00;102009.47;4168913;28;20052;-76
2023/06/23 02:58:26;;;;;;;7.72;3.65;;;14.30;99.90;;;13.78;100.00;102009.91;4168723;28;20499;-76
2023/06/23 03:00:29;;;;;;;4.60;3.88;;;14.30;99.90;;;13.73;100.00;102009.50;4168839;28;20026;-75
2023/06/23 03:02:33;;;;;;;6.47;4.00;;;14.30;99.90;;;13.68;100.00;102009.94;4169919;28;20544;-75
2023/06/23 03:04:36;;;;;;;;;;;14.20;99.90;;;13.51;100.00;101996.59;4202339;28;20029;-75
2023/06/23 03:06:38;;;;;;;4.90;3.67;;;14.20;99.90;;;13.56;100.00;102012.94;4168922;28;19909;-76
2023/06/23 03:08:39;;;;;;;5.10;3.78;;;14.10;99.90;;;13.51;100.00;102008.03;4162590;28;20017;-75
2023/06/23 03:10:40;;;;;;;6.05;4.22;;;14.10;99.90;;;13.39;100.00;102000.41;4152243;28;20125;-76
2023/06/23 03:12:41;;;;;;;5.57;4.15;;;14.10;99.90;;;13.42;100.00;102006.25;4169598;28;20025;-76
2023/06/23 03:14:44;;;;;;;6.30;4.03;;;14.00;99.90;;;13.42;100.00;102008.06;4168568;28;20089;-76
2023/06/23 03:16:52;;;;;;;5.60;4.43;;;14.00;99.90;;;13.40;100.00;102005.56;4168040;28;20397;-76
2023/06/23 03:19:28;;;;;;;7.63;4.20;;;14.00;99.90;;;13.51;100.00;102028.41;4177932;28;20064;-75
2023/06/23 03:21:28;;;;;;;;;;;14.00;99.90;;;13.47;100.00;102019.09;4168861;28;20076;-75
2023/06/23 03:23:32;;;;;;;4.85;3.70;;;14.00;99.90;;;13.49;100.00;102022.44;4168196;28;20352;-75
2023/06/23 03:25:33;;;;;;;6.65;4.28;;;14.00;99.90;;;13.48;100.00;102018.09;4168293;28;20112;-75
2023/06/23 03:27:37;;;;;;;5.68;4.18;;;14.00;99.90;;;13.41;100.00;102017.00;4168272;28;20052;-75
2023/06/23 03:29:59;;;;;;;5.10;3.92;;;14.00;99.90;;;13.51;100.00;102031.06;4185850;28;20029;-75
2023/06/23 03:32:04;;;;;;;8.02;3.90;;;14.00;99.90;;;13.49;100.00;102025.06;4169196;28;20041;-76
2023/06/23 03:34:05;;;;;;;7.22;4.03;;;14.00;99.90;;;13.42;100.00;102022.16;4186107;28;20021;-76
2023/06/23 03:36:17;;;;;;;8.30;4.03;;;14.00;99.90;;;13.44;100.00;102028.13;4168234;28;20028;-75
2023/06/23 03:38:23;;;;;;;5.85;4.13;;;14.00;99.90;;;13.40;100.00;102025.94;4152399;28;20031;-76
2023/06/23 03:40:28;;;;;;;5.90;4.78;;;14.00;99.90;;;13.45;100.00;102028.97;4183619;28;20029;-76
2023/06/23 03:42:29;;;;;;;8.40;4.60;;;14.00;99.90;;;13.43;100.00;102025.66;4151833;28;20050;-75
2023/06/23 03:44:46;;;;;;;7.28;5.28;;;13.90;99.90;;;13.42;100.00;102029.25;4168115;28;20026;-76
2023/06/23 03:46:58;;;;;;;5.97;4.82;;;13.90;99.90;;;13.42;100.00;102040.72;4169099;28;20045;-75
2023/06/23 03:49:04;;;;;;;5.68;4.30;;;13.90;99.90;;;13.37;100.00;102039.47;4167882;28;20068;-75
2023/06/23 03:51:09;;;;;;;7.72;4.68;;;13.90;99.90;;;13.42;100.00;102055.78;4168101;28;20052;-76
2023/06/23 03:53:13;;;;;;;7.95;4.60;;;13.90;99.90;;;13.36;100.00;102051.88;4168453;28;20031;-75
2023/06/23 03:55:15;;;;;;;5.35;4.32;;;13.90;99.90;;;13.11;100.00;102032.09;4168095;28;20034;-75
2023/06/23 03:57:20;;;;;;;4.13;3.45;;;13.80;99.90;;;13.25;100.00;102063.47;4135445;28;20034;-75
2023/06/23 03:59:26;;;;;;;6.55;4.60;;;13.80;99.90;;;13.22;100.00;102061.13;4151721;28;20081;-76
2023/06/23 04:01:29;;;;;;;5.40;3.97;;;13.80;99.90;;;13.16;100.00;102056.38;4168172;28;20044;-75
2023/06/23 04:03:32;;;;;;;5.75;3.97;;;13.80;99.90;;;13.18;100.00;102067.66;4167839;28;20558;-75
2023/06/23 04:05:37;;;;;;;4.78;3.75;;;13.70;99.90;;;13.10;100.00;102059.59;4168081;28;20045;-75
2023/06/23 04:07:40;;;;;;;5.65;3.75;;;13.70;99.90;;;13.16;100.00;102074.94;4167807;28;20432;-75
2023/06/23 04:09:49;;;;;;;4.47;3.78;;;13.70;99.90;;;13.15;100.00;102083.00;4167523;28;20052;-75
2023/06/23 04:11:52;;;;;;;4.95;4.13;;;13.70;99.90;;;13.11;100.00;102077.13;4168206;28;20065;-75
2023/06/23 04:13:56;;;;;;;5.50;3.80;;;13.70;99.90;;;13.04;100.00;102062.75;4167397;28;20116;-75
2023/06/23 04:15:59;;;;;;;5.05;3.53;;;13.70;99.90;;;13.08;100.00;102080.06;4167776;28;20121;-76
2023/06/23 04:18:02;;;;;;;8.23;4.13;;;13.60;99.90;;;13.07;100.00;102094.28;4167572;28;20533;-76
2023/06/23 04:20:07;;;;;;;4.80;3.97;;;13.60;99.90;;;12.99;100.00;102085.34;4151263;28;20164;-76
2023/06/23 04:22:09;;;;;;;5.60;3.90;;;13.60;99.90;;;12.97;100.00;102087.28;4167700;28;20116;-76
2023/06/23 04:24:12;;;;;;;5.60;3.67;;;13.60;99.90;;;13.07;100.00;102107.53;4167666;28;20559;-76
2023/06/23 04:26:14;;;;;;;5.30;3.67;;;13.60;99.90;;;13.01;100.00;102100.13;4167636;28;20076;-76
2023/06/23 04:28:22;;;;;;;4.97;3.47;;;13.60;99.90;;;13.15;100.00;102117.44;4166355;28;20279;-76
2023/06/23 04:30:24;;;;;;;6.28;4.07;;;13.70;99.90;;;12.99;100.00;102088.00;4168210;28;20030;-76
2023/06/23 04:32:25;;;;;;;6.22;4.35;;;13.70;99.90;;;13.15;100.00;102105.03;4167571;28;20076;-76
2023/06/23 04:34:28;;;;;;;5.25;4.00;;;13.70;99.90;;;13.20;100.00;102112.59;4167409;28;20048;-75
2023/06/23 04:36:44;;;;;;;7.10;4.32;;;13.80;99.90;;;13.31;100.00;102117.72;4167422;28;20079;-76
2023/06/23 04:38:57;;;;;;;8.20;4.20;;;13.80;99.90;;;13.32;100.00;102114.94;4167942;28;20030;-76
2023/06/23 04:41:03;;;;;;;7.65;5.10;;;13.80;99.90;;;13.36;100.00;102115.50;4162246;28;20041;-76
2023/06/23 04:43:28;;;;;;;4.38;3.60;;;13.80;99.90;;;13.41;100.00;102125.69;4167408;28;20032;-76
2023/06/23 04:45:33;;;;;;;7.80;4.57;;;13.90;99.90;;;13.28;100.00;102100.31;4176422;28;20033;-76
2023/06/23 04:47:38;;;;;;;6.07;3.92;;;13.90;99.90;;;13.45;100.00;102127.06;4167684;28;20460;-76
2023/06/23 04:49:41;;;;;;;8.85;4.90;;;13.90;99.90;;;13.42;100.00;102108.78;4167224;28;20060;-76
2023/06/23 04:51:48;;;;;;;5.47;4.45;;;14.00;99.90;;;13.46;100.00;102115.50;4167726;28;20552;-76
2023/06/23 04:53:57;;;;;;;5.15;3.70;;;14.00;99.90;;;13.59;100.00;102116.84;4170031;28;20025;-76
2023/06/23 04:56:04;;;;;;;6.18;4.70;;;14.10;99.90;;;13.64;100.00;102113.78;4183802;28;20021;-75
2023/06/23 04:58:08;;;;;;;5.05;4.22;;;14.10;99.90;;;13.73;100.00;102120.88;4188404;28;20050;-76
2023/06/23 05:00:12;;;;;;;6.05;4.38;;;14.10;99.90;;;13.78;100.00;102121.28;4183681;28;20029;-76
2023/06/23 05:02:15;;;;;;;5.50;4.13;;;14.20;99.90;;;13.84;100.00;102120.72;4167359;28;20040;-75
2023/06/23 05:04:17;;;;;;;4.47;3.80;;;14.30;99.90;;;13.86;100.00;102110.78;4167139;28;20049;-76
2023/06/23 05:06:22;;;;;;;6.80;4.70;;;14.30;99.90;;;13.89;100.00;102107.84;4167211;28;20035;-75
2023/06/23 05:08:28;;;;;;;8.27;4.03;;;14.40;99.90;;;14.06;100.00;102119.53;4167571;28;20071;-76
2023/06/23 05:10:31;;;;;;;6.10;5.15;;;14.50;99.90;;;14.15;100.00;102127.47;4167379;28;20025;-76
2023/06/23 05:12:34;;;;;;;6.18;3.88;;;14.50;99.90;;;14.24;100.00;102128.41;4150442;28;20045;-76
2023/06/23 05:14:40;;;;;;;7.40;4.23;;;14.60;99.90;;;14.32;100.00;102126.72;4167460;28;20029;-76
2023/06/23 05:16:43;;;;;;;5.32;4.50;;;14.70;99.90;;;14.33;100.00;102112.47;4184953;28;20325;-76
2023/06/23 05:18:47;;;;;;;8.00;4.20;;;14.80;99.90;;;14.49;100.00;102121.59;4167124;28;20476;-76
2023/06/23 05:20:49;;;;;;;5.47;3.72;;;14.90;99.90;;;14.56;100.00;102128.84;4167387;28;20091;-76
2023/06/23 05:22:51;;;;;;;6.40;4.55;;;15.00;99.90;;;14.68;100.00;102130.31;4167019;28;20026;-76
2023/06/23 05:25:03;;;;;;;5.28;3.85;;;15.00;99.90;;;14.71;100.00;102123.88;4167041;28;20033;-76
2023/06/23 05:27:08;;;;;;;5.40;4.50;;;15.10;99.90;;;14.81;100.00;102136.09;4167518;28;20021;-76
2023/06/23 05:29:11;;;;;;;7.10;4.55;;;15.20;99.90;;;14.74;100.00;102113.78;4150764;28;20073;-76
2023/06/23 05:31:14;;;;;;;5.70;4.88;;;15.30;99.90;;;14.83;100.00;102120.00;4167262;28;20040;-76
2023/06/23 05:33:17;;;;;;;5.72;4.50;;;15.30;99.90;;;14.93;100.00;102136.75;4183344;28;20033;-76
2023/06/23 05:35:21;;;;;;;5.97;4.88;;;15.30;99.90;;;15.01;100.00;102136.81;4183285;28;20021;-76
2023/06/23 05:37:24;;;;;;;6.15;4.95;;;15.40;99.90;;;15.03;100.00;102132.16;4190138;28;20028;-76
2023/06/23 05:39:27;;;;;;;5.47;4.57;;;15.50;99.90;;;15.09;100.00;102131.56;4168621;28;20112;-76
2023/06/23 05:41:28;;;;;;;7.75;5.00;;;15.50;99.90;;;15.29;100.00;102146.38;4169936;28;20136;-76
2023/06/23 05:43:29;;;;;;;6.85;5.00;;;15.70;99.90;;;15.38;100.00;102136.66;4169915;28;20025;-75
2023/06/23 05:45:30;;;;;;;7.30;5.00;;;15.80;99.90;;;15.56;100.00;102134.03;4203030;28;20036;-76
2023/06/23 05:47:54;;;;;;;6.38;4.90;;;16.10;99.90;;;15.92;100.00;102148.88;4187603;28;20035;-76
2023/06/23 05:49:59;;;;;;;6.32;5.03;;;16.30;99.90;;;16.14;100.00;102155.50;4187940;28;20067;-76
2023/06/23 05:52:03;;;;;;;4.97;4.40;;;16.50;99.90;;;16.26;100.00;102139.13;4169966;28;20077;-76
2023/06/23 05:54:11;;;;;;;;;;;16.70;99.90;;;16.43;100.00;102145.34;4195776;28;20021;-76
2023/06/23 05:56:51;;;;;;;6.03;4.55;;;16.90;99.90;;;16.73;100.00;102162.63;4186946;28;19912;-76
2023/06/23 05:58:57;;;;;;;5.47;4.20;;;17.10;99.90;;;16.96;100.00;102163.72;4186268;28;20021;-76
2023/06/23 06:01:02;;;;;;;6.63;4.05;;;17.40;99.90;;;17.22;100.00;102164.44;4186013;28;20060;-76
2023/06/23 06:03:09;;;;;;;6.60;4.28;;;17.60;99.90;;;17.47;100.00;102160.78;4181161;28;20029;-76
2023/06/23 06:05:16;;;;;;;7.20;4.68;;;17.80;99.90;;;17.51;100.00;102138.09;4169983;28;20033;-76
2023/06/23 06:07:19;;;;;;;5.88;4.85;;;17.90;99.90;;;17.73;100.00;102165.16;4170057;28;20033;-76
2023/06/23 06:09:21;;;;;;;5.88;4.00;;;18.00;99.90;;;17.83;100.00;102174.63;4169747;28;20516;-76
2023/06/23 06:11:24;;;;;;;7.07;4.82;;;18.10;99.90;;;17.78;100.00;102154.78;4169707;28;20524;-76
2023/06/23 06:13:27;;;;;;;5.68;4.82;;;18.20;99.90;;;17.77;100.00;102147.81;4186904;28;20032;-76
2023/06/23 06:15:29;;;;;;;4.43;3.80;;;18.20;99.90;;;17.80;100.00;102152.81;4187022;28;20025;-76
2023/06/23 06:17:33;;;;;;;7.93;5.45;;;18.20;99.90;;;17.81;100.00;102157.13;4169642;28;20052;-76
2023/06/23 06:19:37;;;;;;;4.95;3.88;;;18.20;99.90;;;17.80;100.00;102166.16;4169349;28;20406;-76
2023/06/23 06:21:39;;;;;;;5.72;4.05;;;18.20;99.90;;;17.75;100.00;102155.97;4169613;28;20404;-76
2023/06/23 06:23:42;;;;;;;6.30;4.53;;;18.10;99.90;;;17.72;100.00;102152.78;4186798;28;20561;-76
2023/06/23 06:25:45;;;;;;;6.90;4.93;;;18.10;99.90;;;17.72;100.00;102158.13;4187043;28;20032;-76
2023/06/23 06:27:48;;;;;;;7.78;4.50;;;18.10;99.90;;;17.68;100.00;102173.69;4186735;28;20036;-76
2023/06/23 06:29:52;;;;;;;5.55;4.75;;;18.00;99.90;;;17.58;100.00;102181.00;4152758;28;20488;-77
2023/06/23 06:31:56;;;;;;;5.47;4.47;;;17.90;99.90;;;17.48;100.00;102174.94;4168342;28;20445;-76
2023/06/23 06:34:01;;;;;;;5.85;4.55;;;17.90;99.90;;;17.59;100.00;102186.16;4153076;28;20034;-76
2023/06/23 06:36:04;;;;;;;7.80;6.18;;;17.90;99.90;;;17.52;100.00;102170.97;4183117;28;20059;-76
2023/06/23 06:38:06;;;;;;;7.68;5.35;;;17.90;99.90;;;17.54;100.00;102177.81;4169439;28;20142;-76
2023/06/23 06:40:11;;;;;;;6.97;5.55;;;17.90;99.90;;;17.53;100.00;102185.97;4169503;28;20463;-76
2023/06/23 06:42:12;;;;;;;7.82;6.30;;;17.90;99.90;;;17.52;100.00;102193.16;4168882;28;20034;-76
2023/06/23 06:44:13;;;;;;;7.22;4.95;;;17.90;99.90;;;17.48;100.00;102185.63;4169035;28;20033;-76
2023/06/23 06:46:15;;;;;;;7.68;5.63;;;17.90;99.90;;;17.50;100.00;102172.97;4186837;28;20443;-76
2023/06/23 06:48:19;;;;;;;8.52;5.53;;;18.00;99.90;;;17.56;100.00;102172.34;4168940;28;20033;-76
2023/06/23 06:50:22;;;;;;;7.78;5.47;;;18.00;99.90;;;17.58;100.00;102171.16;4186009;28;20029;-76
2023/06/23 06:52:26;;;;;;;7.90;5.77;;;18.10;99.90;;;17.76;100.00;102188.84;4186026;28;20435;-76
2023/06/23 06:54:27;;;;;;;7.15;5.63;;;18.10;99.90;;;17.60;100.00;102171.00;4170418;28;20144;-76
2023/06/23 06:56:28;;;;;;;6.03;4.32;;;18.10;99.90;;;17.90;100.00;102186.31;4168996;28;20037;-76
2023/06/23 06:58:29;;;;;;;9.82;5.88;;;18.20;99.90;;;17.97;100.00;102173.13;4186437;28;20498;-76
2023/06/23 07:00:30;;;;;;;7.30;5.75;;;18.30;99.90;;;18.17;100.00;102187.78;4168822;28;20041;-76
2023/06/23 07:02:32;;;;;;;8.10;6.13;;;18.40;99.90;;;18.16;100.00;102189.59;4152085;28;20104;-76
2023/06/23 07:04:33;;;;;;;8.00;6.88;;;18.40;99.90;;;18.10;100.00;102181.44;4185045;28;20021;-76
2023/06/23 07:06:36;;;;;;;8.18;5.68;;;18.40;99.90;;;18.03;100.00;102191.16;4201713;28;20017;-76
2023/06/23 07:08:37;;;;;;;7.93;5.65;;;18.40;99.90;;;18.08;100.00;102194.13;4168736;28;20457;-76
2023/06/23 07:10:38;;;;;;;6.93;5.15;;;18.40;99.90;;;18.25;100.00;102199.28;4168501;28;20026;-76
2023/06/23 07:12:39;;;;;;;7.28;5.90;;;18.50;99.90;;;18.27;100.00;102174.22;4186164;28;20028;-76
2023/06/23 07:14:40;;;;;;;7.45;6.10;;;18.60;99.90;;;18.37;100.00;102177.56;4184867;28;20017;-76
2023/06/23 07:16:41;;;;;;;10.70;5.65;;;18.70;99.90;;;18.52;100.00;102182.03;4186254;28;20032;-76
2023/06/23 07:18:41;;;;;;;8.43;5.53;;;18.80;99.90;;;18.66;100.00;102193.84;4151993;28;20081;-76
2023/06/23 07:20:42;;;;;;;8.50;6.40;;;18.90;99.90;;;18.63;100.00;102172.81;4168574;28;20037;-76
2023/06/23 07:22:44;;;;;;;7.35;4.85;;;19.00;99.90;;;18.68;100.00;102176.63;4186012;28;20506;-76
2023/06/23 07:24:44;;;;;;;6.03;5.43;;;19.10;99.90;;;18.81;100.00;102185.91;4168360;28;20024;-76
2023/06/23 07:26:45;;;;;;;7.93;6.25;;;19.10;99.90;;;18.80;100.00;102193.09;4184500;28;20048;-76
2023/06/23 07:28:46;;;;;;;8.52;6.25;;;19.20;99.90;;;18.76;100.00;102189.94;4168251;28;20021;-76
2023/06/23 07:30:47;;;;;;;6.97;6.25;;;19.10;99.90;;;18.97;100.00;102185.81;4151941;28;20029;-76
2023/06/23 07:32:49;;;;;;;6.93;4.75;;;19.20;99.90;;;19.08;100.00;102172.06;4168295;28;20104;-76
2023/06/23 07:34:50;;;;;;;7.85;5.32;;;19.40;99.90;;;19.34;100.00;102194.78;4168208;28;20072;-76
2023/06/23 07:36:50;;;;;;;7.80;5.20;;;19.50;99.90;;;19.39;100.00;102196.09;4184650;28;20024;-76
2023/06/23 07:38:51;;;;;;;7.13;5.70;;;19.60;99.90;;;19.44;100.00;102175.03;4168278;28;20068;-76
2023/06/23 07:40:52;;;;;;;6.47;5.40;;;19.70;99.90;;;19.44;100.00;102177.69;4168148;28;20065;-76
2023/06/23 07:42:53;;;;;;;7.18;5.03;;;19.80;99.90;;;19.54;100.00;102197.00;4185588;28;20032;-76
2023/06/23 07:44:54;;;;;;;5.63;4.75;;;19.80;99.90;;;19.48;100.00;102185.19;4185565;28;20107;-76
2023/06/23 07:46:55;;;;;;;5.15;4.38;;;19.80;99.90;;;19.53;100.00;102190.84;4167886;28;20448;-76
2023/06/23 07:48:56;;;;;;;5.05;4.25;;;19.80;99.90;;;19.66;100.00;102192.88;4168110;28;20033;-76
2023/06/23 07:50:57;;;;;;;6.80;5.55;;;19.90;99.90;;;19.68;100.00;102199.72;4168227;28;20057;-76
2023/06/23 07:52:57;;;;;;;5.85;4.90;;;19.90;99.90;;;19.65;100.00;102202.75;4151783;28;20026;-76
2023/06/23 07:54:58;;;;;;;6.65;4.38;;;20.00;99.90;;;19.71;100.00;102203.91;4192000;28;20484;-76
2023/06/23 07:57:01;;;;;;;6.45;5.47;;;20.00;99.90;;;19.51;100.00;102192.84;4167895;28;20056;-76
2023/06/23 07:59:03;;;;;;;7.60;5.10;;;19.90;99.90;;;19.58;100.00;102195.66;4185533;28;20492;-76
2023/06/23 08:01:04;;;;;;;6.68;5.47;;;19.90;99.90;;;19.72;100.00;102202.88;4185111;28;20025;-76
2023/06/23 08:03:05;;;;;;;6.63;4.97;;;20.00;99.90;;;19.71;100.00;102199.38;4167770;28;20033;-76
2023/06/23 08:05:06;;;;;;;7.22;4.68;;;20.00;99.90;;;19.78;100.00;102203.00;4200745;28;20527;-76
2023/06/23 08:07:06;;;;;;;6.45;5.18;;;20.10;99.90;;;19.91;100.00;102212.25;4167921;28;20029;-76
2023/06/23 08:09:07;;;;;;;5.65;4.97;;;20.20;99.90;;;19.87;100.00;102214.47;4168019;28;20535;-76
2023/06/23 08:11:08;;;;;;;6.90;5.35;;;20.20;99.90;;;19.83;100.00;102202.47;4167944;28;20037;-76
2023/06/23 08:13:09;;;;;;;5.93;5.10;;;20.20;99.90;;;20.01;100.00;102223.56;4167530;28;20100;-76
2023/06/23 08:15:10;;;;;;;7.72;5.10;;;20.30;99.90;;;20.00;100.00;102217.38;4167616;28;20404;-76
2023/06/23 08:17:11;;;;;;;6.55;4.82;;;20.30;99.90;;;19.98;100.00;102205.19;4185214;28;20021;-76
2023/06/23 08:19:12;;;;;;;5.38;4.13;;;20.40;99.90;;;20.11;100.00;102203.53;4184101;28;20064;-76
2023/06/23 08:21:13;;;;;;;6.90;5.10;;;20.50;99.90;;;20.15;100.00;102191.44;4151488;28;20034;-76
2023/06/23 08:23:14;;;;;;;8.07;5.15;;;20.50;99.90;;;20.14;100.00;102188.94;4185282;28;20036;-76
2023/06/23 08:25:15;;;;;;;5.55;4.07;;;20.60;99.90;;;20.27;100.00;102191.84;4167299;28;20063;-76
2023/06/23 08:27:16;;;;;;;7.03;4.68;;;20.60;99.90;;;20.34;100.00;102195.44;4185111;28;20024;-76
2023/06/23 08:29:17;;;;;;;6.03;4.40;;;20.70;99.90;;;20.57;100.00;102212.28;4167537;28;20030;-76
2023/06/23 08:31:18;;;;;;;6.07;4.72;;;20.90;99.90;;;20.59;100.00;102194.13;4151255;28;20037;-76
2023/06/23 08:33:18;;;;;;;4.60;3.90;;;21.00;99.90;;;20.83;100.00;102193.84;4184688;28;20404;-76
2023/06/23 08:35:19;;;;;;;3.35;3.05;;;21.10;99.90;;;21.11;100.00;102190.47;4183419;28;20025;-76